createdAt,value
2023-03-05T00:00:56.590Z,31.25
2023-03-05T00:03:25.199Z,31.42
2023-03-05T00:05:58.331Z,32.15
2023-03-05T00:08:27.581Z,30.17
2023-03-05T00:11:00.792Z,30.08
2023-03-05T00:13:29.454Z,29.85
2023-03-05T00:15:58.002Z,30.88
2023-03-05T00:18:26.820Z,30.00
2023-03-05T00:20:55.499Z,30.20
2023-03-05T00:23:24.089Z,29.90
2023-03-05T00:25:52.313Z,29.48
2023-03-05T00:28:22.386Z,27.98
2023-03-05T00:30:50.933Z,28.45
2023-03-05T00:33:19.506Z,27.38
2023-03-05T00:35:48.486Z,28.50
2023-03-05T00:38:17.124Z,28.00
2023-03-05T00:40:45.734Z,27.27
2023-03-05T00:43:14.409Z,27.48
2023-03-05T00:45:44.366Z,27.20
2023-03-05T00:48:13.002Z,26.45
2023-03-05T00:50:41.616Z,26.38
2023-03-05T00:53:10.288Z,26.20
2023-03-05T00:55:38.930Z,26.02
2023-03-05T00:58:07.855Z,26.02
2023-03-05T01:00:36.384Z,25.85
2023-03-05T01:03:06.557Z,25.80
2023-03-05T01:05:35.324Z,25.48
2023-03-05T01:08:03.913Z,26.02
2023-03-05T01:10:32.622Z,25.23
2023-03-05T01:13:01.380Z,23.80
2023-03-05T01:15:30.035Z,24.63
2023-03-05T01:17:58.948Z,24.05
2023-03-05T01:20:28.912Z,24.00
2023-03-05T01:22:59.200Z,21.90
2023-03-05T01:25:27.867Z,22.38
2023-03-05T01:27:56.431Z,22.98
2023-03-05T01:30:25.299Z,22.73
2023-03-05T01:32:54.358Z,22.27
2023-03-05T01:35:25.168Z,23.65
2023-03-05T01:37:55.439Z,22.02
2023-03-05T01:40:27.061Z,21.75
2023-03-05T01:43:00.759Z,21.55
2023-03-05T01:45:32.427Z,22.27
2023-03-05T01:48:01.028Z,21.70
2023-03-05T01:50:29.720Z,21.63
2023-03-05T01:53:01.463Z,20.65
2023-03-05T01:55:30.475Z,21.70
2023-03-05T01:58:01.975Z,20.80
2023-03-05T02:00:33.193Z,21.17
2023-03-05T02:03:03.309Z,19.98
2023-03-05T02:05:33.046Z,20.95
2023-03-05T02:08:05.971Z,20.45
2023-03-05T02:10:35.994Z,19.75
2023-03-05T02:13:06.507Z,19.55
2023-03-05T02:15:35.289Z,19.30
2023-03-05T02:18:03.822Z,19.63
2023-03-05T02:20:44.489Z,19.13
2023-03-05T02:23:14.583Z,18.48
2023-03-05T02:25:43.194Z,19.10
2023-03-05T02:28:16.228Z,19.20
2023-03-05T02:30:44.878Z,19.17
2023-03-05T02:33:14.652Z,19.02
2023-03-05T02:35:43.751Z,17.67
2023-03-05T02:38:13.866Z,17.73
2023-03-05T02:40:42.526Z,17.55
2023-03-05T02:43:11.201Z,18.10
2023-03-05T02:45:39.988Z,17.55
2023-03-05T02:48:08.750Z,17.30
2023-03-05T02:50:37.302Z,17.30
2023-03-05T02:53:05.867Z,17.70
2023-03-05T02:55:35.859Z,17.00
2023-03-05T02:58:04.427Z,16.75
2023-03-05T03:00:33.120Z,17.38
2023-03-05T03:03:01.727Z,16.95
2023-03-05T03:05:30.479Z,16.90
2023-03-05T03:07:59.179Z,16.67
2023-03-05T03:10:27.740Z,16.77
2023-03-05T03:12:57.728Z,16.95
2023-03-05T03:15:26.345Z,15.93
2023-03-05T03:17:55.645Z,16.25
2023-03-05T03:20:24.463Z,15.68
2023-03-05T03:22:53.738Z,15.18
2023-03-05T03:25:23.374Z,15.55
2023-03-05T03:27:51.936Z,15.73
2023-03-05T03:30:22.039Z,15.18
2023-03-05T03:32:52.025Z,15.30
2023-03-05T03:35:20.798Z,15.13
2023-03-05T03:37:49.598Z,15.48
2023-03-05T03:40:18.516Z,14.80
2023-03-05T03:42:47.083Z,14.77
2023-03-05T03:45:15.893Z,14.52
2023-03-05T03:47:45.792Z,14.57
2023-03-05T03:50:14.469Z,14.40
2023-03-05T03:52:43.006Z,13.95
2023-03-05T03:55:12.241Z,14.77
2023-03-05T03:57:40.817Z,14.70
2023-03-05T04:00:11.487Z,14.00
2023-03-05T04:02:40.047Z,14.15
2023-03-05T04:05:11.090Z,14.15
2023-03-05T04:07:39.648Z,13.48
2023-03-05T04:10:08.804Z,14.40
2023-03-05T04:12:37.475Z,13.07
2023-03-05T04:15:08.681Z,14.10
2023-03-05T04:17:37.532Z,13.25
2023-03-05T04:20:08.427Z,13.80
2023-03-05T04:22:38.591Z,13.00
2023-03-05T04:25:08.573Z,13.25
2023-03-05T04:27:37.571Z,13.27
2023-03-05T04:30:07.835Z,13.27
2023-03-05T04:32:36.370Z,13.05
2023-03-05T04:35:05.648Z,12.32
2023-03-05T04:37:34.183Z,13.32
2023-03-05T04:40:04.594Z,12.07
2023-03-05T04:42:33.175Z,12.65
2023-03-05T04:45:01.673Z,13.00
2023-03-05T04:47:30.211Z,12.73
2023-03-05T04:49:58.809Z,12.35
2023-03-05T04:52:27.518Z,12.55
2023-03-05T04:54:56.020Z,11.55
2023-03-05T04:57:25.969Z,12.10
2023-03-05T04:59:54.702Z,11.60
2023-03-05T05:02:23.553Z,11.95
2023-03-05T05:04:54.139Z,10.75
2023-03-05T05:07:23.312Z,11.60
2023-03-05T05:09:51.939Z,10.90
2023-03-05T05:12:20.487Z,11.43
2023-03-05T05:14:50.350Z,11.43
2023-03-05T05:17:18.902Z,11.57
2023-03-05T05:19:47.375Z,10.80
2023-03-05T05:22:15.911Z,10.80
2023-03-05T05:24:44.550Z,11.10
2023-03-05T05:27:13.109Z,10.85
2023-03-05T05:29:41.721Z,12.90
2023-03-05T05:32:11.772Z,10.88
2023-03-05T05:34:40.312Z,10.75
2023-03-05T05:37:10.415Z,11.23
2023-03-05T05:39:39.678Z,9.75
2023-03-05T05:42:08.753Z,10.45
2023-03-05T05:44:37.453Z,10.32
2023-03-05T05:47:06.137Z,10.23
2023-03-05T05:49:36.152Z,10.50
2023-03-05T05:52:05.042Z,9.27
2023-03-05T05:54:33.641Z,10.13
2023-03-05T05:57:02.188Z,9.48
2023-03-05T05:59:30.975Z,9.48
2023-03-05T06:01:59.613Z,9.32
2023-03-05T06:04:28.297Z,10.23
2023-03-05T06:06:58.252Z,9.52
2023-03-05T06:09:26.817Z,9.93
2023-03-05T06:11:55.379Z,9.10
2023-03-05T06:14:23.999Z,9.30
2023-03-05T06:16:52.675Z,8.95
2023-03-05T06:19:21.381Z,8.50
2023-03-05T06:21:49.946Z,8.80
2023-03-05T06:24:20.386Z,9.05
2023-03-05T06:26:49.729Z,9.38
2023-03-05T06:29:18.858Z,8.88
2023-03-05T06:31:47.435Z,8.60
2023-03-05T06:34:15.920Z,9.15
2023-03-05T06:36:44.768Z,8.70
2023-03-05T06:39:13.553Z,9.25
2023-03-05T06:41:44.695Z,8.68
2023-03-05T06:44:13.401Z,8.45
2023-03-05T06:46:41.993Z,8.57
2023-03-05T06:49:11.763Z,8.45
2023-03-05T06:51:42.426Z,8.25
2023-03-05T06:54:12.306Z,8.05
2023-03-05T06:56:43.400Z,7.65
2023-03-05T06:59:12.541Z,7.80
2023-03-05T07:01:41.190Z,8.05
2023-03-05T07:04:10.012Z,7.68
2023-03-05T07:06:39.426Z,7.65
2023-03-05T07:09:09.174Z,7.75
2023-03-05T07:11:37.701Z,7.60
2023-03-05T07:14:07.711Z,7.65
2023-03-05T07:16:36.761Z,8.00
2023-03-05T07:19:06.560Z,7.63
2023-03-05T07:21:38.356Z,7.30
2023-03-05T07:24:08.640Z,7.55
2023-03-05T07:26:37.228Z,7.50
2023-03-05T07:29:07.116Z,7.22
2023-03-05T07:31:35.658Z,6.85
2023-03-05T07:34:04.435Z,7.20
2023-03-05T07:36:35.066Z,7.00
2023-03-05T07:39:04.992Z,7.18
2023-03-05T07:41:33.788Z,7.20
2023-03-05T07:44:02.300Z,7.32
2023-03-05T07:46:34.012Z,6.80
2023-03-05T07:49:02.591Z,7.38
2023-03-05T07:51:31.171Z,7.32
2023-03-05T07:54:00.485Z,7.00
2023-03-05T07:56:31.971Z,7.00
2023-03-05T07:59:00.837Z,6.93
2023-03-05T08:01:30.893Z,6.80
2023-03-05T08:03:59.509Z,6.63
2023-03-05T08:06:28.149Z,6.43
2023-03-05T08:08:56.758Z,6.85
2023-03-05T08:11:25.569Z,5.90
2023-03-05T08:13:54.184Z,6.93
2023-03-05T08:16:25.864Z,6.72
2023-03-05T08:18:57.543Z,6.95
2023-03-05T08:21:29.390Z,6.45
2023-03-05T08:23:58.330Z,6.97
2023-03-05T08:26:28.155Z,6.45
2023-03-05T08:28:56.919Z,6.72
2023-03-05T08:31:26.625Z,6.38
2023-03-05T08:33:57.418Z,6.50
2023-03-05T08:36:26.019Z,6.45
2023-03-05T08:38:54.650Z,5.85
2023-03-05T08:41:23.652Z,6.22
2023-03-05T08:43:52.195Z,6.35
2023-03-05T08:46:20.989Z,6.15
2023-03-05T08:48:49.635Z,5.80
2023-03-05T08:51:25.839Z,6.13
2023-03-05T08:53:54.632Z,6.18
2023-03-05T08:56:23.168Z,6.35
2023-03-05T08:58:52.531Z,6.43
2023-03-05T09:01:22.664Z,6.70
2023-03-05T09:03:51.346Z,5.88
2023-03-05T09:06:21.375Z,5.95
2023-03-05T09:08:49.910Z,6.60
2023-03-05T09:11:18.563Z,6.07
2023-03-05T09:13:47.134Z,6.20
2023-03-05T09:16:17.235Z,6.30
2023-03-05T09:18:46.073Z,6.20
2023-03-05T09:21:15.727Z,5.68
2023-03-05T09:23:47.273Z,5.95
2023-03-05T09:26:19.297Z,6.35
2023-03-05T09:28:48.484Z,6.40
2023-03-05T09:31:17.081Z,6.20
2023-03-05T09:33:45.613Z,6.13
2023-03-05T09:36:21.964Z,5.90
2023-03-05T09:38:51.985Z,5.72
2023-03-05T09:41:29.985Z,6.00
2023-03-05T09:44:06.253Z,5.93
2023-03-05T09:46:45.019Z,5.97
2023-03-05T09:49:20.598Z,5.75
2023-03-05T09:51:51.036Z,5.30
2023-03-05T09:54:22.853Z,6.13
2023-03-05T09:56:56.702Z,5.65
2023-03-05T09:59:30.521Z,6.28
2023-03-05T10:02:01.512Z,5.57
2023-03-05T10:04:39.853Z,5.97
2023-03-05T10:07:13.189Z,5.88
2023-03-05T10:09:46.543Z,5.65
2023-03-05T10:12:23.618Z,5.93
2023-03-05T10:14:52.233Z,5.70
2023-03-05T10:18:01.211Z,6.25
2023-03-05T10:21:06.192Z,5.72
2023-03-05T10:24:04.690Z,6.15
2023-03-05T10:26:47.879Z,5.63
2023-03-05T10:29:50.893Z,5.93
2023-03-05T10:32:30.005Z,5.47
2023-03-05T10:35:23.048Z,5.72
2023-03-05T10:38:06.958Z,6.05
2023-03-05T10:40:38.173Z,5.93
2023-03-05T10:43:16.540Z,5.30
2023-03-05T10:45:46.419Z,5.85
2023-03-05T10:48:20.442Z,5.82
2023-03-05T10:50:50.695Z,5.10
2023-03-05T10:53:25.554Z,5.32
2023-03-05T10:55:56.588Z,5.80
2023-03-05T10:58:27.157Z,5.20
2023-03-05T11:01:05.996Z,5.50
2023-03-05T11:03:54.958Z,5.65
2023-03-05T11:06:36.267Z,5.50
2023-03-05T11:09:24.292Z,5.93
2023-03-05T11:12:14.223Z,5.65
2023-03-05T11:14:45.488Z,6.05
2023-03-05T11:17:28.928Z,6.30
2023-03-05T11:19:57.810Z,5.55
2023-03-05T11:22:26.751Z,5.60
2023-03-05T11:25:15.139Z,6.00
2023-03-05T11:27:52.452Z,5.65
2023-03-05T11:30:27.183Z,5.47
2023-03-05T11:33:10.445Z,5.53
2023-03-05T11:35:41.115Z,5.55
2023-03-05T11:38:18.468Z,5.60
2023-03-05T11:40:47.180Z,5.65
2023-03-05T11:43:17.308Z,5.50
2023-03-05T11:45:47.252Z,5.18
2023-03-05T11:48:19.885Z,5.43
2023-03-05T11:50:50.657Z,5.55
2023-03-05T11:53:22.989Z,5.65
2023-03-05T11:55:53.470Z,5.38
2023-03-05T11:58:30.211Z,5.18
2023-03-05T12:01:00.387Z,5.20
2023-03-05T12:03:32.912Z,4.97
2023-03-05T12:06:05.707Z,5.20
2023-03-05T12:08:36.915Z,5.05
2023-03-05T12:11:10.697Z,5.45
2023-03-05T12:13:43.100Z,5.18
2023-03-05T12:16:21.281Z,5.03
2023-03-05T12:18:56.154Z,5.10
2023-03-05T12:21:33.059Z,5.15
2023-03-05T12:24:02.597Z,5.00
2023-03-05T12:26:59.325Z,5.20
2023-03-05T12:29:40.005Z,12.38
2023-03-05T12:33:02.445Z,19.13
2023-03-05T12:35:40.810Z,12.77
2023-03-05T12:38:32.146Z,22.50
2023-03-05T12:41:42.952Z,38.92
2023-03-05T12:44:23.668Z,25.70
2023-03-05T12:47:24.615Z,22.75
2023-03-05T12:49:53.258Z,20.05
2023-03-05T12:52:28.271Z,22.17
2023-03-05T12:55:15.179Z,25.40
2023-03-05T12:57:44.857Z,23.60
2023-03-05T13:00:21.533Z,26.15
2023-03-05T13:02:56.242Z,23.30
2023-03-05T13:05:27.817Z,23.63
2023-03-05T13:08:15.790Z,24.08
2023-03-05T13:10:44.751Z,21.85
2023-03-05T13:13:13.750Z,22.17
2023-03-05T13:15:42.312Z,21.67
2023-03-05T13:18:20.278Z,20.73
2023-03-05T13:20:52.245Z,20.80
2023-03-05T13:23:24.278Z,20.27
2023-03-05T13:26:04.952Z,19.10
2023-03-05T13:28:33.916Z,19.00
2023-03-05T13:31:03.703Z,17.92
2023-03-05T13:33:34.817Z,19.42
2023-03-05T13:36:03.563Z,19.67
2023-03-05T13:38:35.757Z,20.00
2023-03-05T13:41:19.551Z,18.77
2023-03-05T13:43:49.345Z,18.30
2023-03-05T13:46:26.400Z,17.73
2023-03-05T13:48:56.772Z,18.08
2023-03-05T13:51:25.849Z,18.20
2023-03-05T13:53:54.446Z,18.10
2023-03-05T13:56:23.010Z,17.77
2023-03-05T13:58:53.480Z,16.75
2023-03-05T14:01:29.753Z,16.75
2023-03-05T14:04:01.419Z,16.60
2023-03-05T14:06:31.146Z,15.35
2023-03-05T14:09:06.620Z,13.75
2023-03-05T14:11:36.062Z,14.05
2023-03-05T14:14:09.425Z,14.05
2023-03-05T14:16:38.116Z,13.73
2023-03-05T14:19:10.470Z,13.38
2023-03-05T14:21:47.649Z,14.02
2023-03-05T14:24:21.918Z,12.57
2023-03-05T14:26:52.659Z,12.30
2023-03-05T14:29:23.893Z,12.00
2023-03-05T14:31:53.660Z,11.88
2023-03-05T14:34:27.343Z,11.18
2023-03-05T14:36:57.557Z,10.52
2023-03-05T14:39:51.634Z,10.32
2023-03-05T14:42:29.169Z,20.25
2023-03-05T14:44:59.113Z,43.55
2023-03-05T14:47:28.158Z,19.00
2023-03-05T14:49:58.037Z,28.65
2023-03-05T14:52:26.914Z,31.02
2023-03-05T14:54:55.922Z,25.50
2023-03-05T14:57:26.452Z,21.63
2023-03-05T14:59:55.757Z,23.90
2023-03-05T15:02:25.959Z,20.83
2023-03-05T15:04:54.611Z,29.20
2023-03-05T15:07:28.108Z,24.23
2023-03-05T15:09:56.765Z,21.05
2023-03-05T15:12:25.505Z,22.67
2023-03-05T15:14:54.414Z,25.73
2023-03-05T15:17:25.030Z,22.42
2023-03-05T15:19:53.870Z,20.35
2023-03-05T15:22:22.535Z,19.92
2023-03-05T15:24:52.499Z,18.48
2023-03-05T15:27:21.112Z,17.70
2023-03-05T15:29:49.731Z,16.52
2023-03-05T15:32:18.522Z,17.48
2023-03-05T15:34:47.128Z,17.63
2023-03-05T15:37:15.739Z,16.27
2023-03-05T15:39:44.395Z,16.58
2023-03-05T15:42:14.381Z,15.75
2023-03-05T15:44:42.964Z,16.95
2023-03-05T15:47:11.778Z,15.77
2023-03-05T15:49:40.573Z,15.30
2023-03-05T15:52:09.106Z,13.98
2023-03-05T15:54:37.774Z,14.23
2023-03-05T15:57:07.109Z,14.20
2023-03-05T15:59:37.252Z,13.13
2023-03-05T16:02:06.045Z,12.95
2023-03-05T16:04:34.776Z,13.00
2023-03-05T16:07:04.062Z,12.63
2023-03-05T16:09:35.629Z,13.25
2023-03-05T16:12:04.641Z,13.13
2023-03-05T16:14:33.323Z,12.77
2023-03-05T16:17:03.465Z,13.02
2023-03-05T16:19:32.071Z,11.85
2023-03-05T16:22:00.862Z,11.88
2023-03-05T16:24:29.490Z,12.07
2023-03-05T16:26:58.436Z,12.07
2023-03-05T16:29:28.554Z,11.48
2023-03-05T16:31:58.555Z,11.07
2023-03-05T16:34:28.570Z,10.73
2023-03-05T16:36:58.859Z,10.40
2023-03-05T16:39:27.603Z,11.20
2023-03-05T16:41:57.818Z,10.30
2023-03-05T16:44:26.410Z,10.10
2023-03-05T16:46:56.574Z,10.07
2023-03-05T16:49:25.191Z,10.32
2023-03-05T16:51:55.809Z,9.82
2023-03-05T16:54:25.636Z,9.60
2023-03-05T16:56:54.221Z,9.40
2023-03-05T16:59:22.855Z,9.52
2023-03-05T17:01:51.468Z,9.57
2023-03-05T17:04:20.097Z,8.95
2023-03-05T17:06:49.766Z,10.00
2023-03-05T17:09:24.145Z,9.55
2023-03-05T17:11:52.771Z,9.30
2023-03-05T17:14:21.467Z,8.43
2023-03-05T17:16:50.139Z,8.77
2023-03-05T17:19:18.897Z,8.98
2023-03-05T17:21:50.761Z,9.18
2023-03-05T17:24:22.272Z,9.30
2023-03-05T17:26:51.468Z,8.23
2023-03-05T17:29:21.737Z,8.05
2023-03-05T17:31:53.102Z,8.55
2023-03-05T17:34:33.214Z,8.52
2023-03-05T17:37:03.156Z,8.98
2023-03-05T17:39:33.368Z,7.60
2023-03-05T17:42:01.951Z,8.13
2023-03-05T17:44:30.600Z,8.30
2023-03-05T17:46:59.251Z,8.60
2023-03-05T17:49:28.033Z,7.88
2023-03-05T17:51:57.104Z,8.50
2023-03-05T17:54:25.752Z,8.30
2023-03-05T17:56:57.185Z,8.07
2023-03-05T17:59:26.042Z,7.85
2023-03-05T18:01:54.760Z,8.00
2023-03-05T18:04:23.342Z,8.38
2023-03-05T18:06:52.124Z,8.25
2023-03-05T18:09:21.048Z,8.90
2023-03-05T18:11:50.043Z,8.13
2023-03-05T18:14:20.195Z,7.75
2023-03-05T18:16:49.012Z,8.02
2023-03-05T18:19:18.869Z,7.40
2023-03-05T18:21:47.734Z,7.63
2023-03-05T18:24:16.366Z,8.38
2023-03-05T18:26:44.988Z,8.57
2023-03-05T18:29:13.691Z,8.70
2023-03-05T18:31:43.953Z,7.97
2023-03-05T18:34:12.669Z,7.65
2023-03-05T18:36:41.252Z,8.40
2023-03-05T18:39:11.093Z,8.07
2023-03-05T18:41:39.803Z,7.20
2023-03-05T18:44:09.058Z,7.72
2023-03-05T18:46:37.690Z,7.55
2023-03-05T18:49:08.627Z,7.88
2023-03-05T18:51:37.305Z,8.55
2023-03-05T18:54:05.953Z,7.60
2023-03-05T18:56:34.629Z,7.35
2023-03-05T18:59:03.131Z,7.50
2023-03-05T19:01:31.755Z,7.22
2023-03-05T19:04:00.521Z,7.82
2023-03-05T19:06:30.499Z,6.97
2023-03-05T19:09:00.895Z,6.80
2023-03-05T19:11:29.422Z,7.35
2023-03-05T19:13:58.551Z,7.43
2023-03-05T19:16:29.508Z,7.07
2023-03-05T19:19:06.412Z,7.35
2023-03-05T19:21:36.483Z,6.85
2023-03-05T19:24:05.528Z,6.60
2023-03-05T19:26:34.238Z,7.03
2023-03-05T19:29:03.815Z,6.63
2023-03-05T19:31:32.499Z,6.75
2023-03-05T19:34:01.794Z,6.53
2023-03-05T19:36:30.561Z,6.75
2023-03-05T19:39:00.506Z,6.55
2023-03-05T19:41:29.539Z,7.03
2023-03-05T19:43:58.335Z,6.78
2023-03-05T19:46:26.898Z,7.22
2023-03-05T19:48:55.631Z,10.35
2023-03-05T19:51:25.380Z,10.50
2023-03-05T19:53:54.089Z,8.45
2023-03-05T19:56:24.121Z,9.85
2023-03-05T19:58:52.761Z,9.30
2023-03-05T20:01:23.047Z,9.95
2023-03-05T20:03:52.840Z,10.40
2023-03-05T20:06:21.836Z,10.32
2023-03-05T20:08:50.413Z,10.20
2023-03-05T20:11:19.576Z,10.35
2023-03-05T20:13:49.710Z,11.02
2023-03-05T20:16:20.112Z,9.88
2023-03-05T20:18:52.634Z,9.55
2023-03-05T20:21:23.361Z,9.10
2023-03-05T20:23:52.142Z,9.63
2023-03-05T20:26:21.145Z,8.88
2023-03-05T20:28:51.312Z,8.75
2023-03-05T20:31:20.745Z,8.18
2023-03-05T20:33:49.419Z,7.93
2023-03-05T20:36:18.372Z,8.38
2023-03-05T20:38:47.592Z,7.57
2023-03-05T20:41:18.225Z,7.82
2023-03-05T20:43:48.897Z,7.85
2023-03-05T20:46:20.069Z,8.50
2023-03-05T20:48:49.567Z,7.75
2023-03-05T20:51:21.218Z,7.78
2023-03-05T20:53:50.131Z,7.88
2023-03-05T20:56:18.808Z,7.05
2023-03-05T20:58:47.587Z,7.10
2023-03-05T21:01:16.220Z,6.93
2023-03-05T21:03:46.202Z,6.90
2023-03-05T21:06:14.856Z,7.40
2023-03-05T21:08:44.377Z,6.90
2023-03-05T21:11:13.402Z,7.13
2023-03-05T21:13:41.972Z,6.85
2023-03-05T21:16:12.286Z,6.72
2023-03-05T21:18:40.918Z,6.43
2023-03-05T21:21:10.964Z,6.47
2023-03-05T21:23:39.573Z,7.18
2023-03-05T21:26:08.684Z,6.07
2023-03-05T21:28:37.473Z,6.90
2023-03-05T21:31:10.280Z,6.75
2023-03-05T21:33:39.022Z,6.80
2023-03-05T21:36:08.515Z,7.55
2023-03-05T21:38:38.609Z,7.13
2023-03-05T21:41:07.503Z,6.60
2023-03-05T21:43:36.075Z,6.88
2023-03-05T21:46:04.871Z,7.47
2023-03-05T21:48:33.765Z,6.85
2023-03-05T21:51:02.318Z,7.32
2023-03-05T21:53:31.027Z,7.05
2023-03-05T21:56:11.234Z,7.32
2023-03-05T21:58:39.787Z,7.57
2023-03-05T22:01:09.597Z,6.85
2023-03-05T22:03:38.189Z,6.88
2023-03-05T22:06:10.514Z,6.90
2023-03-05T22:08:39.118Z,7.22
2023-03-05T22:11:11.511Z,7.18
2023-03-05T22:13:40.241Z,7.18
2023-03-05T22:16:09.988Z,7.55
2023-03-05T22:18:38.779Z,6.80
2023-03-05T22:21:17.411Z,6.68
2023-03-05T22:23:46.007Z,6.45
2023-03-05T22:26:15.984Z,6.75
2023-03-05T22:28:44.605Z,7.07
2023-03-05T22:31:13.297Z,6.85
2023-03-05T22:33:42.069Z,6.50
2023-03-05T22:36:12.420Z,6.53
2023-03-05T22:38:41.105Z,6.55
2023-03-05T22:41:10.189Z,6.60
2023-03-05T22:43:40.104Z,6.55
2023-03-05T22:46:12.892Z,6.45
2023-03-05T22:48:41.691Z,6.07
2023-03-05T22:51:10.578Z,6.35
2023-03-05T22:53:39.198Z,6.35
2023-03-05T22:56:08.785Z,6.10
2023-03-05T22:58:37.705Z,6.82
2023-03-05T23:01:13.668Z,6.05
2023-03-05T23:03:42.439Z,6.13
2023-03-05T23:06:11.382Z,6.53
2023-03-05T23:08:39.928Z,6.32
2023-03-05T23:11:10.010Z,5.72
2023-03-05T23:13:38.660Z,6.20
2023-03-05T23:16:07.854Z,6.45
2023-03-05T23:18:37.919Z,6.15
2023-03-05T23:21:06.964Z,5.78
2023-03-05T23:23:35.602Z,5.88
2023-03-05T23:26:04.169Z,6.03
2023-03-05T23:28:32.822Z,5.70
2023-03-05T23:31:02.832Z,5.80
2023-03-05T23:33:31.419Z,6.10
2023-03-05T23:36:01.757Z,6.50
2023-03-05T23:38:31.325Z,6.25
2023-03-05T23:41:02.895Z,5.95
2023-03-05T23:43:31.703Z,5.28
2023-03-05T23:46:01.640Z,5.60
2023-03-05T23:48:30.555Z,5.75
2023-03-05T23:51:00.645Z,5.40
2023-03-05T23:53:31.344Z,5.43
2023-03-05T23:55:59.964Z,5.38
2023-03-05T23:58:28.666Z,5.90
